createdAt,value
2023-03-04T00:08:35.165Z,21.00
2023-03-04T00:18:41.129Z,25.00
2023-03-04T00:28:47.682Z,25.30
2023-03-04T00:48:57.602Z,18.70
2023-03-04T00:59:03.322Z,17.40
2023-03-04T01:09:09.551Z,18.30
2023-03-04T01:19:15.492Z,19.60
2023-03-04T01:29:21.166Z,18.10
2023-03-04T01:39:26.754Z,20.50
2023-03-04T01:49:32.575Z,16.40
2023-03-04T01:59:39.618Z,18.00
2023-03-04T02:09:45.849Z,17.30
2023-03-04T02:29:58.215Z,15.30
2023-03-04T02:40:04.344Z,13.00
2023-03-04T02:50:12.469Z,14.10
2023-03-04T03:00:18.415Z,14.40
2023-03-04T03:10:24.449Z,15.00
2023-03-04T03:20:30.152Z,13.60
2023-03-04T03:30:36.048Z,14.30
2023-03-04T03:40:42.271Z,14.80
2023-03-04T03:50:47.942Z,16.10
2023-03-04T04:00:55.850Z,16.00
2023-03-04T04:11:02.780Z,15.50
2023-03-04T04:21:09.098Z,16.20
2023-03-04T04:31:14.879Z,14.60
2023-03-04T04:41:23.822Z,16.00
2023-03-04T04:51:29.601Z,12.30
2023-03-04T05:01:35.554Z,12.40
2023-03-04T05:11:41.232Z,13.00
2023-03-04T05:21:47.113Z,13.10
2023-03-04T05:31:52.785Z,12.20
2023-03-04T05:41:58.413Z,12.20
2023-03-04T05:52:04.119Z,11.50
2023-03-04T06:02:09.874Z,12.70
2023-03-04T06:12:15.711Z,13.30
2023-03-04T06:22:21.323Z,11.40
2023-03-04T06:32:27.149Z,14.10
2023-03-04T06:42:32.811Z,13.80
2023-03-04T06:52:38.484Z,15.10
2023-03-04T07:02:44.249Z,18.50
2023-03-04T07:12:50.015Z,14.30
2023-03-04T07:22:55.887Z,13.60
2023-03-04T07:33:01.476Z,15.70
2023-03-04T07:43:07.490Z,13.00
2023-03-04T07:53:13.122Z,17.40
2023-03-04T08:03:18.906Z,12.40
2023-03-04T08:13:25.913Z,13.90
2023-03-04T08:23:31.651Z,14.90
2023-03-04T08:33:37.586Z,14.10
2023-03-04T08:43:43.531Z,13.10
2023-03-04T08:53:49.185Z,12.90
2023-03-04T09:03:54.854Z,13.20
2023-03-04T09:14:00.560Z,11.60
2023-03-04T09:24:06.651Z,12.10
2023-03-04T09:34:12.488Z,13.80
2023-03-04T09:44:26.915Z,12.80
2023-03-04T09:55:04.993Z,11.40
2023-03-04T10:05:15.842Z,13.00
2023-03-04T10:15:29.418Z,14.40
2023-03-04T10:25:36.234Z,12.20
2023-03-04T10:45:47.052Z,11.00
2023-03-04T11:06:12.010Z,13.00
2023-03-04T11:16:28.736Z,11.80
2023-03-04T11:26:40.544Z,12.40
2023-03-04T11:36:57.318Z,12.80
2023-03-04T11:57:29.975Z,11.50
2023-03-04T12:07:53.423Z,11.10
2023-03-04T12:18:16.202Z,12.10
2023-03-04T12:28:35.920Z,9.20
2023-03-04T12:38:59.065Z,7.60
2023-03-04T12:49:27.245Z,7.70
2023-03-04T12:59:38.792Z,7.60
2023-03-04T13:09:52.740Z,6.90
2023-03-04T13:20:12.790Z,6.10
2023-03-04T13:31:06.786Z,5.10
2023-03-04T13:41:17.168Z,5.10
2023-03-04T13:51:30.069Z,5.20
2023-03-04T14:01:38.190Z,4.50
2023-03-04T14:11:45.168Z,4.60
2023-03-04T14:21:50.943Z,4.10
2023-03-04T14:31:57.773Z,1.30
2023-03-04T14:52:23.677Z,1.90
2023-03-04T15:02:33.239Z,1.50
2023-03-04T15:12:39.713Z,1.90
2023-03-04T15:33:15.853Z,2.50
2023-03-04T15:43:23.475Z,2.00
2023-03-04T15:53:33.762Z,2.50
2023-03-04T16:03:39.489Z,2.00
2023-03-04T16:13:45.247Z,3.00
2023-03-04T16:23:52.896Z,2.20
2023-03-04T16:33:58.540Z,2.90
2023-03-04T16:44:04.345Z,3.30
2023-03-04T16:54:14.704Z,4.20
2023-03-04T17:04:20.451Z,4.70
2023-03-04T17:14:26.191Z,4.70
2023-03-04T17:24:32.454Z,3.20
2023-03-04T17:34:38.095Z,4.10
2023-03-04T17:44:44.275Z,4.70
2023-03-04T17:54:50.156Z,5.60
2023-03-04T18:04:55.821Z,3.60
2023-03-04T18:15:01.567Z,4.40
2023-03-04T18:25:10.698Z,5.20
2023-03-04T18:35:16.557Z,4.20
2023-03-04T18:45:22.534Z,7.30
2023-03-04T18:55:28.383Z,4.20
2023-03-04T19:05:35.369Z,6.00
2023-03-04T19:15:41.048Z,3.90
2023-03-04T19:25:47.449Z,3.60
2023-03-04T19:35:53.417Z,2.70
2023-03-04T19:45:59.411Z,4.00
2023-03-04T19:56:05.309Z,3.40
2023-03-04T20:06:11.641Z,4.40
2023-03-04T20:16:17.746Z,10.90
2023-03-04T20:26:23.727Z,10.10
2023-03-04T20:36:31.059Z,6.00
2023-03-04T20:46:41.066Z,4.10
2023-03-04T20:56:47.338Z,3.00
2023-03-04T21:06:53.614Z,4.40
2023-03-04T21:17:00.988Z,5.60
2023-03-04T21:27:08.075Z,4.90
2023-03-04T21:37:13.985Z,6.80
2023-03-04T21:47:20.054Z,9.40
2023-03-04T21:57:25.737Z,11.10
2023-03-04T22:07:31.341Z,13.10
2023-03-04T22:27:41.831Z,12.50
2023-03-04T22:37:47.829Z,11.40
2023-03-04T22:47:54.794Z,12.60
2023-03-04T22:58:00.600Z,10.60
2023-03-04T23:08:06.613Z,10.60
2023-03-04T23:18:12.353Z,10.50
2023-03-04T23:28:18.018Z,10.20
2023-03-04T23:38:23.715Z,11.10
2023-03-04T23:48:29.531Z,8.60
2023-03-04T23:58:35.212Z,9.20
